Skip Navigation Links Skip Navigation Links

Current Weather

Luton, United Kingdom

For information only: do not use for flight planning or navigation.
Latest weather
Observation time Tuesday, September 28, 2021 10:20 AM BST
Local time Tuesday, September 28, 2021 10:36 AM BST
Flight conditions Visual Meteorological Conditions
Winds
Wind direction South (190°)
Winds variable from 150° to 220°
Wind speed 8 mph
Visibility 6.2 mi.
Present weather light rain
Sky condition
Ceiling unlimited
Cloud layer few clouds 1,400 ft.
Temperature 57°F
Dewpoint 54°F
Altimeter 30.03 in.Hg
Derived measurements
Relative humidity 88%
Density altitude -49 ft.
Remarks
Fully automated report.
METAR EGGW 280920Z AUTO 19007KT 150V220 9999 -RA FEW014/// //////TCU 14/12 Q1017

Settings

Location code

InnerDrive.Weather 4.0.6770.0 Release CLR 4.0.30319.42000
Copyright ©2018 Inner Drive Technology. All rights reserved. Portions Copyright ©1986-2018 David Braverman.

Find weather

Site navigation


Skip Navigation Links

Place info

Page info

PayPal - The safer, easier way to pay online!

Return home.

Copyright ©2021 Inner Drive Technology. Purveyors of fine, hand-crafted computer software. Page printed 2021-09-28T09:36:18 UTC.